Time;durP1;ratioP1;P1;durP2;ratioP2;P2;SDS_P1;SDS_P2;PMS_P1;PMS_P2;Temp;Humidity;BMP_temperature;BMP_pressure;BME280_temperature;BME280_humidity;BME280_pressure;Samples;Min_cycle;Max_cycle;Signal;HPM_P1;HPM_P2
2023/01/24 00:01:51;;;;;;;58.33;28.55;;;;;;;-0.09;100.00;100464.44;15273742;19;20033;-52
2023/01/24 00:07:22;;;;;;;50.72;27.50;;;;;;;-0.08;100.00;100480.31;15280288;19;21004;-49
2023/01/24 00:12:49;;;;;;;46.70;26.35;;;;;;;-0.07;100.00;100479.41;15278536;19;20022;-52
2023/01/24 00:18:14;;;;;;;45.65;25.27;;;;;;;-0.07;100.00;100476.75;15269639;19;20500;-52
2023/01/24 00:23:39;;;;;;;41.10;25.33;;;;;;;-0.05;100.00;100476.69;15280020;19;20078;-49
2023/01/24 00:29:07;;;;;;;45.63;24.20;;;;;;;-0.06;100.00;100467.00;15269968;19;20349;-50
2023/01/24 00:34:32;;;;;;;41.35;23.50;;;;;;;-0.06;100.00;100467.84;15280794;19;20438;-50
2023/01/24 00:39:56;;;;;;;35.83;20.60;;;;;;;-0.06;100.00;100469.66;15269110;19;20033;-54
2023/01/24 00:45:23;;;;;;;38.85;22.75;;;;;;;-0.06;100.00;100470.50;15253749;19;20074;-49
2023/01/24 00:50:49;;;;;;;39.78;22.50;;;;;;;-0.06;100.00;100481.09;15273493;19;20018;-50
2023/01/24 00:56:14;;;;;;;33.03;19.73;;;;;;;-0.06;100.00;100480.25;15274888;19;20041;-51
2023/01/24 01:01:48;;;;;;;34.35;20.58;;;;;;;-0.05;100.00;100482.84;15267527;19;20078;-48
2023/01/24 01:07:13;;;;;;;35.25;21.42;;;;;;;-0.05;100.00;100492.59;15278287;19;20028;-51
2023/01/24 01:12:37;;;;;;;35.88;21.83;;;;;;;-0.06;100.00;100494.34;15273186;19;20025;-54
2023/01/24 01:18:04;;;;;;;35.80;21.17;;;;;;;-0.06;100.00;100497.00;15278636;19;20018;-51
2023/01/24 01:23:29;;;;;;;31.67;19.85;;;;;;;-0.07;100.00;100505.91;15272638;19;20374;-49
2023/01/24 01:28:54;;;;;;;30.02;18.33;;;;;;;-0.07;100.00;100505.91;15275590;19;20093;-53
2023/01/24 01:34:21;;;;;;;28.80;17.50;;;;;;;-0.05;100.00;100490.78;15275959;19;20410;-51
2023/01/24 01:39:46;;;;;;;25.40;17.40;;;;;;;-0.06;100.00;100481.09;15265707;19;20102;-53
2023/01/24 01:45:52;;;;;;;23.52;15.45;;;;;;;-0.07;100.00;100468.78;15277256;19;20011;-49
2023/01/24 01:51:24;;;;;;;19.63;14.18;;;;;;;-0.05;100.00;100469.59;15270031;19;20029;-56
2023/01/24 01:56:53;;;;;;;24.00;16.30;;;;;;;-0.05;100.00;100460.78;15272102;19;20085;-50
2023/01/24 02:02:21;;;;;;;21.35;14.98;;;;;;;-0.05;100.00;100466.09;15257040;19;20346;-48
2023/01/24 02:07:53;;;;;;;16.42;11.93;;;;;;;-0.04;100.00;100460.72;15277602;19;20096;-49
2023/01/24 02:13:18;;;;;;;18.75;12.20;;;;;;;-0.06;100.00;100454.59;15271471;19;20022;-48
2023/01/24 02:18:47;;;;;;;15.05;11.93;;;;;;;-0.06;100.00;100438.69;15272610;19;20534;-49
2023/01/24 02:24:22;;;;;;;16.00;12.15;;;;;;;-0.05;100.00;100431.63;15274456;19;20027;-48
2023/01/24 02:29:50;;;;;;;16.40;11.90;;;;;;;-0.07;100.00;100439.66;15264353;19;20026;-48
2023/01/24 02:35:30;;;;;;;17.75;12.65;;;;;;;-0.03;100.00;100432.47;15283786;19;20019;-49
2023/01/24 02:41:06;;;;;;;18.20;13.63;;;;;;;-0.07;100.00;100441.41;15272951;19;20015;-50
2023/01/24 02:46:38;;;;;;;18.92;13.48;;;;;;;-0.06;100.00;100438.69;15285714;19;20031;-50
2023/01/24 03:03:42;;;;;;;19.20;14.02;;;;;;;-0.06;100.00;100441.34;15282774;19;20045;-48
2023/01/24 03:09:18;;;;;;;20.33;14.13;;;;;;;-0.05;100.00;100431.63;15281974;19;20018;-48
2023/01/24 03:39:53;;;;;;;14.10;11.55;;;;;;;-0.09;100.00;100438.81;15283340;19;20021;-48
2023/01/24 03:43:06;;;;;;;17.00;13.27;;;;;;;-0.06;100.00;100441.34;15281098;19;20381;-49
2023/01/24 03:48:36;;;;;;;17.08;12.85;;;;;;;-0.07;100.00;100447.59;15283249;19;20049;-48
2023/01/24 03:54:06;;;;;;;16.08;12.18;;;;;;;-0.08;100.00;100444.97;15278365;19;20756;-49
2023/01/24 03:59:46;;;;;;;17.30;12.57;;;;;;;-0.06;100.00;100436.06;15278494;19;20047;-49
2023/01/24 04:05:17;;;;;;;15.85;11.40;;;;;;;-0.06;100.00;100427.25;15281064;19;20525;-48
2023/01/24 04:10:44;;;;;;;15.95;12.18;;;;;;;-0.08;100.00;100424.66;15275283;19;20478;-49
2023/01/24 04:16:10;;;;;;;18.80;13.48;;;;;;;-0.07;100.00;100431.69;15279281;19;20020;-52
2023/01/24 04:21:57;;;;;;;18.30;13.32;;;;;;;-0.06;100.00;100432.56;15275136;19;20018;-51
2023/01/24 04:27:25;;;;;;;20.30;14.02;;;;;;;-0.09;100.00;100428.22;15277814;19;20404;-49
2023/01/24 04:32:56;;;;;;;17.33;12.35;;;;;;;-0.09;100.00;100436.16;15273110;19;20044;-53
2023/01/24 04:38:21;;;;;;;15.82;12.05;;;;;;;-0.10;100.00;100438.84;15277490;19;20006;-50
2023/01/24 04:43:52;;;;;;;18.17;13.90;;;;;;;-0.09;100.00;100433.53;15278586;19;20375;-49
2023/01/24 04:49:17;;;;;;;19.77;14.50;;;;;;;-0.11;100.00;100435.34;15276131;19;20023;-49
2023/01/24 04:54:42;;;;;;;16.23;12.40;;;;;;;-0.13;100.00;100434.50;15271728;19;20474;-51
2023/01/24 05:00:11;;;;;;;19.00;13.88;;;;;;;-0.14;100.00;100440.72;15269095;19;20073;-52
2023/01/24 05:05:37;;;;;;;14.48;11.20;;;;;;;-0.18;100.00;100439.94;15266673;19;20027;-53
2023/01/24 05:11:04;;;;;;;11.98;9.15;;;;;;;-0.17;100.00;100440.78;15266117;19;20455;-52
2023/01/24 05:16:36;;;;;;;14.10;11.00;;;;;;;-0.18;100.00;100447.03;15271378;19;20033;-50
2023/01/24 05:22:01;;;;;;;13.35;10.65;;;;;;;-0.18;100.00;100433.78;15264177;19;20018;-50
2023/01/24 05:27:26;;;;;;;14.15;11.27;;;;;;;-0.18;100.00;100436.44;15269527;19;20398;-51
2023/01/24 05:32:58;;;;;;;14.88;11.63;;;;;;;-0.18;100.00;100439.94;15265798;19;20638;-48
2023/01/24 05:38:23;;;;;;;15.68;12.00;;;;;;;-0.18;100.00;100444.38;15263016;19;20018;-49
2023/01/24 05:43:49;;;;;;;14.95;12.25;;;;;;;-0.18;100.00;100444.38;15270653;19;20524;-48
2023/01/24 05:49:21;;;;;;;;;;;;;;;-0.20;100.00;100462.09;15273193;19;20020;-49
2023/01/24 05:54:46;;;;;;;16.63;12.27;;;;;;;-0.20;100.00;100462.09;15272540;19;20622;-50
2023/01/24 06:00:19;;;;;;;17.95;13.63;;;;;;;-0.19;100.00;100470.00;15261486;19;20019;-49
2023/01/24 06:06:06;;;;;;;20.70;14.80;;;;;;;-0.17;100.00;100469.94;15275839;19;20022;-51
2023/01/24 06:11:33;;;;;;;18.15;14.55;;;;;;;-0.19;100.00;100477.09;15263881;19;20037;-49
2023/01/24 06:17:02;;;;;;;21.33;16.10;;;;;;;-0.20;100.00;100484.16;15269919;19;20749;-53
2023/01/24 06:22:37;;;;;;;21.83;16.02;;;;;;;-0.19;100.00;100487.69;15261075;19;20014;-48
2023/01/24 06:28:06;;;;;;;22.73;15.73;;;;;;;-0.19;100.00;100496.47;15266314;19;20018;-52
2023/01/24 06:33:42;;;;;;;20.27;14.88;;;;;;;-0.19;100.00;100501.78;15262089;19;20014;-49
2023/01/24 06:39:15;;;;;;;21.83;15.32;;;;;;;-0.19;100.00;100501.78;15266726;19;20007;-50
2023/01/24 06:44:40;;;;;;;22.67;15.27;;;;;;;-0.18;100.00;100500.03;15268662;19;20068;-51
2023/01/24 06:50:07;;;;;;;19.25;14.05;;;;;;;-0.17;100.00;100513.22;15259166;19;20550;-49
2023/01/24 06:55:35;;;;;;;19.98;14.15;;;;;;;-0.19;100.00;100506.22;15266783;19;20090;-49
2023/01/24 07:01:07;;;;;;;19.30;14.77;;;;;;;-0.19;100.00;100503.56;15263392;19;20010;-49
2023/01/24 07:06:32;;;;;;;20.77;14.95;;;;;;;-0.17;100.00;100514.97;15264980;19;20014;-50
2023/01/24 07:11:59;;;;;;;17.38;13.95;;;;;;;-0.18;100.00;100513.28;15262232;19;20090;-50
2023/01/24 07:17:24;;;;;;;21.65;15.15;;;;;;;-0.16;100.00;100514.06;15266272;19;20387;-48
2023/01/24 07:22:51;;;;;;;18.92;14.13;;;;;;;-0.17;100.00;100514.97;15261144;19;20286;-51
2023/01/24 07:28:20;;;;;;;19.95;14.25;;;;;;;-0.16;100.00;100514.06;15277304;19;20285;-53
2023/01/24 07:33:45;;;;;;;17.92;13.02;;;;;;;-0.16;100.00;100520.25;15271787;19;20101;-52
2023/01/24 07:39:11;;;;;;;16.80;12.85;;;;;;;-0.14;100.00;100514.91;15274176;19;20490;-50
2023/01/24 07:44:38;;;;;;;17.80;13.15;;;;;;;-0.12;100.00;100525.47;15276366;19;20394;-48
2023/01/24 07:50:03;;;;;;;15.90;12.00;;;;;;;-0.11;100.00;100530.72;15275257;19;20378;-50
2023/01/24 07:55:28;;;;;;;16.65;12.88;;;;;;;-0.08;100.00;100535.06;15272377;19;20013;-50
2023/01/24 08:00:56;;;;;;;16.83;12.77;;;;;;;-0.06;100.00;100549.16;15283139;19;20412;-89
2023/01/24 08:06:21;;;;;;;16.83;13.20;;;;;;;-0.04;100.00;100544.69;15292599;19;20010;-90
2023/01/24 08:11:47;;;;;;;19.30;13.90;;;;;;;-0.04;100.00;100561.44;15294890;19;20008;-86
2023/01/24 08:17:15;;;;;;;16.95;13.45;;;;;;;-0.01;100.00;100564.00;15325091;19;20010;-89
2023/01/24 08:22:51;;;;;;;16.55;14.57;;;;;;;-0.01;100.00;100561.38;15321590;19;20020;-87
2023/01/24 08:28:16;;;;;;;19.63;16.17;;;;;;;-0.03;100.00;100560.53;15317016;19;20101;-85
2023/01/24 08:33:45;;;;;;;23.30;16.92;;;;;;;-0.10;100.00;100558.97;15309818;19;20014;-87
2023/01/24 08:39:12;;;;;;;21.35;16.13;;;;;;;-0.11;100.00;100554.56;15307460;19;20549;-87
2023/01/24 08:44:45;;;;;;;17.45;14.45;;;;;;;-0.11;100.00;100557.22;15305758;19;20349;-87
2023/01/24 08:50:16;;;;;;;19.15;15.52;;;;;;;-0.10;100.00;100566.03;15307224;19;20086;-86
2023/01/24 08:55:50;;;;;;;18.25;15.35;;;;;;;-0.15;100.00;100576.75;15313748;19;20099;-87
2023/01/24 09:01:21;;;;;;;17.85;14.55;;;;;;;-0.09;100.00;100571.31;15309740;19;20038;-88
2023/01/24 09:06:50;;;;;;;22.00;16.42;;;;;;;-0.10;100.00;100585.47;15311280;19;20010;-85
2023/01/24 09:12:16;;;;;;;19.92;16.27;;;;;;;-0.06;100.00;100584.47;15314217;19;20034;-87
2023/01/24 09:23:42;;;;;;;19.10;15.93;;;;;;;0.03;100.00;100595.75;15308530;19;19986;-88
2023/01/24 09:29:07;;;;;;;17.15;13.73;;;;;;;0.08;100.00;100584.09;15314954;19;20010;-89
2023/01/24 09:34:34;;;;;;;16.77;14.88;;;;;;;0.10;100.00;100584.94;15300292;19;20029;-87
2023/01/24 09:40:06;;;;;;;17.05;14.65;;;;;;;0.10;100.00;100590.25;15304588;19;20029;-89
2023/01/24 09:45:38;;;;;;;18.17;15.32;;;;;;;0.12;100.00;100585.75;15312843;19;20007;-89
2023/01/24 09:51:08;;;;;;;16.95;14.68;;;;;;;0.18;100.00;100578.56;15351763;19;20025;-87
2023/01/24 09:56:43;;;;;;;17.45;15.02;;;;;;;0.19;100.00;100575.00;15300728;19;20620;-89
2023/01/24 10:08:29;;;;;;;17.17;14.18;;;;;;;0.23;100.00;100566.91;15304583;19;20022;-86
2023/01/24 10:14:31;;;;;;;16.90;15.00;;;;;;;0.27;100.00;100563.28;15298348;19;20035;-87
2023/01/24 10:20:30;;;;;;;16.15;13.65;;;;;;;0.34;100.00;100558.66;15305377;19;20017;-87
2023/01/24 10:26:06;;;;;;;15.15;12.98;;;;;;;0.40;100.00;100562.94;15309232;19;20045;-88
2023/01/24 10:31:39;;;;;;;15.30;13.68;;;;;;;0.39;100.00;100550.56;15314079;19;20018;-89
2023/01/24 10:37:07;;;;;;;16.63;14.18;;;;;;;0.44;100.00;100548.66;15303095;19;20022;-87
2023/01/24 10:42:33;;;;;;;15.60;13.30;;;;;;;0.46;100.00;100541.53;15298723;19;20015;-87
2023/01/24 10:48:07;;;;;;;17.55;14.13;;;;;;;0.48;100.00;100542.34;15298433;19;20010;-87
2023/01/24 10:53:32;;;;;;;15.65;12.98;;;;;;;0.42;100.00;100530.13;15298317;19;20737;-89
2023/01/24 10:59:05;;;;;;;15.88;14.20;;;;;;;0.45;100.00;100524.75;15303140;19;20026;-85
2023/01/24 11:04:34;;;;;;;16.33;14.20;;;;;;;0.49;100.00;100519.34;15313145;19;20474;-88
2023/01/24 11:09:58;;;;;;;16.77;13.98;;;;;;;0.51;100.00;100506.91;15313080;19;20015;-88
2023/01/24 11:15:29;;;;;;;16.35;13.85;;;;;;;0.52;100.00;100512.19;15311261;19;20032;-90
2023/01/24 11:21:17;;;;;;;17.33;14.45;;;;;;;0.50;100.00;100498.09;15327168;19;20082;-90
2023/01/24 11:26:57;;;;;;;17.33;14.68;;;;;;;0.49;100.00;100504.31;15315488;19;20010;-89
2023/01/24 11:32:35;;;;;;;20.30;15.13;;;;;;;0.50;100.00;100500.75;15312137;19;20022;-88
2023/01/24 11:38:28;;;;;;;18.80;15.27;;;;;;;0.46;100.00;100501.75;15311586;19;20008;-88
2023/01/24 11:44:35;;;;;;;21.23;14.98;;;;;;;0.45;100.00;100495.56;15310271;19;20034;-89
2023/01/24 11:50:28;;;;;;;19.45;15.63;;;;;;;0.44;100.00;100504.44;15309971;19;20038;-88
2023/01/24 11:56:09;;;;;;;18.80;15.63;;;;;;;0.40;100.00;100488.69;15303539;19;20028;-88
2023/01/24 12:01:46;;;;;;;17.17;15.32;;;;;;;0.32;100.00;100490.66;15313325;19;20014;-87
2023/01/24 12:07:15;;;;;;;19.23;16.08;;;;;;;0.37;100.00;100494.06;15319084;19;20014;-88
2023/01/24 12:12:49;;;;;;;18.15;15.63;;;;;;;0.38;100.00;100501.09;15321113;19;20018;-85
2023/01/24 12:18:28;;;;;;;21.88;16.02;;;;;;;0.36;100.00;100498.47;15314199;19;20123;-87
2023/01/24 12:24:01;;;;;;;18.90;15.25;;;;;;;0.34;100.00;100494.16;15310313;19;20022;-88
2023/01/24 12:29:33;;;;;;;20.27;16.02;;;;;;;0.30;100.00;100486.28;15312925;19;20022;-88
2023/01/24 12:35:06;;;;;;;19.65;15.77;;;;;;;0.31;100.00;100481.84;15311742;19;20041;-88
2023/01/24 12:40:48;;;;;;;20.25;16.08;;;;;;;0.33;100.00;100476.50;15313969;19;20026;-88
2023/01/24 12:46:23;;;;;;;20.87;15.77;;;;;;;0.30;100.00;100480.97;15304493;19;20012;-90
2023/01/24 12:51:51;;;;;;;21.23;15.07;;;;;;;0.29;100.00;100483.69;15367284;19;20263;-90
2023/01/24 12:57:28;;;;;;;18.08;14.77;;;;;;;0.27;100.00;100486.38;15314589;19;20098;-88
2023/01/24 13:03:36;;;;;;;21.00;15.77;;;;;;;0.24;100.00;100494.41;15305315;19;20014;-89
2023/01/24 13:09:12;;;;;;;20.50;15.18;;;;;;;0.23;100.00;100483.88;15311704;19;20031;-89
2023/01/24 13:14:42;;;;;;;22.23;16.20;;;;;;;0.24;100.00;100491.75;15313182;19;20496;-90
2023/01/24 13:20:40;;;;;;;21.67;16.30;;;;;;;0.23;100.00;100491.81;15317935;19;20018;-90
2023/01/24 13:26:30;;;;;;;22.85;16.20;;;;;;;0.21;100.00;100489.19;15319708;19;20464;-90
2023/01/24 13:32:06;;;;;;;27.58;17.38;;;;;;;0.21;100.00;100491.84;15307490;19;20022;-89
2023/01/24 13:37:38;;;;;;;26.38;17.48;;;;;;;0.21;100.00;100493.66;15307786;19;20554;-89
2023/01/24 13:43:30;;;;;;;29.55;18.70;;;;;;;0.18;100.00;100488.41;15306533;19;20470;-89
2023/01/24 13:49:02;;;;;;;28.27;19.65;;;;;;;0.19;100.00;100490.16;15305001;19;20025;-89
2023/01/24 13:54:41;;;;;;;26.80;17.85;;;;;;;0.15;100.00;100495.53;15311752;19;20014;-90
2023/01/24 14:00:24;;;;;;;24.27;17.55;;;;;;;0.15;100.00;100495.53;15313656;19;20058;-88
2023/01/24 14:05:57;;;;;;;26.13;18.13;;;;;;;0.15;100.00;100494.69;15308394;19;20097;-89
2023/01/24 14:11:33;;;;;;;28.17;18.13;;;;;;;0.11;100.00;100496.56;15311661;19;20418;-86
2023/01/24 14:22:48;;;;;;;28.98;19.45;;;;;;;0.16;100.00;100507.03;15307626;19;20015;-89
2023/01/24 14:34:38;;;;;;;31.52;19.58;;;;;;;0.13;100.00;100509.75;15307296;19;20010;-86
2023/01/24 14:40:34;;;;;;;30.77;20.13;;;;;;;0.11;100.00;100524.84;15301133;19;20011;-88
2023/01/24 14:46:41;;;;;;;34.17;21.13;;;;;;;0.10;100.00;100533.69;15284316;19;20014;-52
2023/01/24 14:52:11;;;;;;;32.05;20.85;;;;;;;0.08;100.00;100540.81;15251184;19;20086;-53
2023/01/24 14:57:40;;;;;;;33.88;20.58;;;;;;;0.06;100.00;100548.81;15259789;19;20534;-53
2023/01/24 15:03:07;;;;;;;32.97;21.13;;;;;;;0.04;100.00;100549.78;15251847;19;20010;-53
2023/01/24 15:08:37;;;;;;;36.53;20.92;;;;;;;0.03;100.00;100548.91;15254062;19;20404;-51
2023/01/24 15:14:06;;;;;;;31.00;20.15;;;;;;;0.01;100.00;100545.41;15249754;19;20021;-50
2023/01/24 15:19:34;;;;;;;30.10;20.35;;;;;;;0.01;100.00;100544.56;15265997;19;20027;-52
2023/01/24 15:25:05;;;;;;;27.58;18.88;;;;;;;0.01;100.00;100539.25;15256036;19;20021;-52
2023/01/24 15:30:31;;;;;;;25.75;18.25;;;;;;;-0.03;100.00;100544.63;15260230;19;20552;-51
2023/01/24 15:35:57;;;;;;;25.90;17.73;;;;;;;-0.03;100.00;100544.63;15259104;19;20462;-52
2023/01/24 15:43:45;;;;;;;27.05;17.77;;;;;;;-0.02;100.00;100546.38;15259546;19;20847;-51
2023/01/24 15:53:26;;;;;;;24.33;15.18;;;;;;;-0.02;100.00;100541.06;15278041;19;20022;-52
2023/01/24 15:58:55;;;;;;;23.15;15.13;;;;;;;-0.02;100.00;100530.47;15277658;19;20011;-49
2023/01/24 16:04:23;;;;;;;20.00;13.68;;;;;;;-0.03;100.00;100528.72;15278314;19;20017;-50
2023/01/24 16:09:49;;;;;;;19.67;12.52;;;;;;;-0.04;100.00;100527.00;15281852;19;20025;-49
2023/01/24 16:15:20;;;;;;;17.23;12.18;;;;;;;-0.06;100.00;100520.00;15269071;19;20367;-51
2023/01/24 16:20:44;;;;;;;15.07;11.70;;;;;;;-0.06;100.00;100526.16;15275499;19;20018;-50
2023/01/24 16:26:21;;;;;;;18.33;13.02;;;;;;;-0.05;100.00;100519.94;15271445;19;20098;-47
2023/01/24 16:31:48;;;;;;;16.45;11.75;;;;;;;-0.02;100.00;100514.56;15268298;19;20018;-48
2023/01/24 16:37:14;;;;;;;18.15;13.13;;;;;;;-0.03;100.00;100511.97;15277101;19;20009;-50
2023/01/24 16:42:40;;;;;;;16.00;11.27;;;;;;;0.00;100.00;100511.91;15269838;19;20266;-48
2023/01/24 16:48:14;;;;;;;14.55;10.77;;;;;;;-0.02;100.00;100514.56;15271924;19;20033;-51
2023/01/24 16:53:39;;;;;;;14.93;10.82;;;;;;;-0.04;100.00;100512.88;15269165;19;20475;-49
2023/01/24 16:59:04;;;;;;;15.07;11.35;;;;;;;-0.04;100.00;100511.09;15271280;19;20486;-48
2023/01/24 17:04:33;;;;;;;14.18;10.25;;;;;;;-0.05;100.00;100509.34;15267203;19;20082;-51
2023/01/24 17:10:05;;;;;;;12.85;10.13;;;;;;;-0.06;100.00;100497.00;15274521;19;20018;-49
2023/01/24 17:15:30;;;;;;;12.80;9.88;;;;;;;-0.05;100.00;100504.03;15267786;19;20006;-52
2023/01/24 17:20:58;;;;;;;12.48;9.57;;;;;;;-0.05;100.00;100492.59;15270177;19;20035;-51
2023/01/24 17:26:23;;;;;;;12.63;9.65;;;;;;;-0.08;100.00;100501.50;15271708;19;20043;-50
2023/01/24 17:31:47;;;;;;;11.18;8.95;;;;;;;-0.08;100.00;100509.47;15266235;19;20014;-49
2023/01/24 17:37:15;;;;;;;13.88;9.38;;;;;;;-0.08;100.00;100506.81;15264655;19;20101;-51
2023/01/24 17:42:39;;;;;;;13.27;9.95;;;;;;;-0.11;100.00;100501.56;15266744;19;20521;-50
2023/01/24 17:48:04;;;;;;;12.15;9.30;;;;;;;-0.10;100.00;100500.66;15268606;19;20022;-50
2023/01/24 17:53:31;;;;;;;9.95;7.70;;;;;;;-0.10;100.00;100500.66;15269395;19;20011;-49
2023/01/24 17:58:57;;;;;;;10.57;8.05;;;;;;;-0.09;100.00;100512.13;15268821;19;20455;-50
2023/01/24 18:04:21;;;;;;;14.02;10.25;;;;;;;-0.13;100.00;100500.75;15268465;19;20019;-52
2023/01/24 18:09:49;;;;;;;13.25;9.32;;;;;;;-0.16;100.00;100512.31;15264296;19;20018;-53
2023/01/24 18:15:15;;;;;;;13.48;9.48;;;;;;;-0.14;100.00;100509.59;15265457;19;20030;-51
2023/01/24 18:20:41;;;;;;;15.52;9.95;;;;;;;-0.14;100.00;100514.91;15265974;19;20022;-48
2023/01/24 18:26:12;;;;;;;14.85;10.70;;;;;;;-0.10;100.00;100515.69;15267646;19;20031;-50
2023/01/24 18:31:37;;;;;;;15.20;11.02;;;;;;;-0.11;100.00;100503.34;15265870;19;20506;-57
2023/01/24 18:37:05;;;;;;;14.93;10.93;;;;;;;-0.11;100.00;100492.75;15263694;19;20354;-48
2023/01/24 18:42:35;;;;;;;15.23;11.27;;;;;;;-0.15;100.00;100491.97;15258987;19;20021;-52
2023/01/24 18:48:08;;;;;;;14.30;11.13;;;;;;;-0.15;100.00;100481.38;15265079;19;20107;-52
2023/01/24 18:53:33;;;;;;;14.38;10.68;;;;;;;-0.17;100.00;100485.84;15260769;19;20018;-52
2023/01/24 18:59:03;;;;;;;15.90;11.32;;;;;;;-0.16;100.00;100483.16;15265374;19;20013;-48
2023/01/24 19:04:29;;;;;;;13.45;10.43;;;;;;;-0.11;100.00;100485.69;15264070;19;20086;-52
2023/01/24 19:09:53;;;;;;;15.27;11.45;;;;;;;-0.11;100.00;100485.69;15264324;19;20090;-52
2023/01/24 19:15:21;;;;;;;16.30;10.85;;;;;;;-0.12;100.00;100481.28;15260720;19;20021;-49
2023/01/24 19:20:45;;;;;;;13.82;10.02;;;;;;;-0.17;100.00;100477.88;15271335;19;20021;-52
2023/01/24 19:26:13;;;;;;;14.15;10.20;;;;;;;-0.15;100.00;100476.06;15279343;19;20086;-50
2023/01/24 19:31:40;;;;;;;14.60;10.95;;;;;;;-0.15;100.00;100473.41;15274487;19;20021;-51
2023/01/24 19:37:08;;;;;;;13.40;9.38;;;;;;;-0.14;100.00;100476.94;15272736;19;20024;-49
2023/01/24 19:42:32;;;;;;;13.85;10.43;;;;;;;-0.14;100.00;100475.16;15272883;19;20022;-50
2023/01/24 19:48:00;;;;;;;14.60;10.20;;;;;;;-0.14;100.00;100474.31;15276415;19;20027;-49
2023/01/24 19:53:25;;;;;;;14.98;10.25;;;;;;;-0.17;100.00;100475.22;15268324;19;20030;-49
2023/01/24 19:58:50;;;;;;;17.48;10.82;;;;;;;-0.14;100.00;100477.81;15276651;19;20025;-49
2023/01/24 20:04:58;;;;;;;17.90;11.38;;;;;;;-0.14;100.00;100476.94;15295612;19;20066;-86
2023/01/24 20:59:51;;;;;;;15.43;10.75;;;;;;;-0.31;100.00;100480.91;15289800;19;20283;-86
2023/01/24 21:05:18;;;;;;;16.58;12.40;;;;;;;-0.32;100.00;100495.06;15288690;19;20466;-86
2023/01/24 21:10:47;;;;;;;17.00;11.30;;;;;;;-0.36;100.00;100489.00;15292797;19;20014;-87
2023/01/24 21:16:17;;;;;;;15.93;11.75;;;;;;;-0.37;100.00;100489.91;15282207;19;20423;-86
2023/01/24 21:21:45;;;;;;;15.65;11.05;;;;;;;-0.34;100.00;100488.94;14776630;19;10000197;-87
2023/01/24 21:27:13;;;;;;;16.30;11.48;;;;;;;-0.38;100.00;100482.84;15297274;19;20470;-85
2023/01/24 21:32:44;;;;;;;14.15;10.50;;;;;;;-0.40;100.00;100484.69;15286653;19;20482;-85
2023/01/24 21:38:13;;;;;;;16.42;11.45;;;;;;;-0.36;100.00;100478.41;15286554;19;20098;-86
2023/01/24 21:43:37;;;;;;;16.20;10.90;;;;;;;-0.34;100.00;100481.00;15279991;19;20033;-87
2023/01/24 21:49:09;;;;;;;15.85;11.35;;;;;;;-0.35;100.00;100481.91;15281765;19;20015;-87
2023/01/24 21:54:38;;;;;;;13.40;10.32;;;;;;;-0.35;100.00;100477.50;15271187;19;20017;-88
2023/01/24 22:00:06;;;;;;;14.55;11.00;;;;;;;-0.34;100.00;100475.69;15284943;19;20010;-87
2023/01/24 22:05:39;;;;;;;17.02;12.02;;;;;;;-0.32;100.00;100464.16;15299625;19;20081;-87
2023/01/24 22:11:07;;;;;;;17.05;12.77;;;;;;;-0.30;100.00;100465.91;15322021;19;20331;-87
2023/01/24 22:16:32;;;;;;;17.58;12.93;;;;;;;-0.29;100.00;100467.66;15275080;19;20011;-87
2023/01/24 22:22:25;;;;;;;18.08;12.32;;;;;;;-0.30;100.00;100455.31;15278827;19;20010;-87
2023/01/24 22:27:53;;;;;;;17.15;12.48;;;;;;;-0.28;100.00;100458.75;15276241;19;20020;-87
2023/01/24 22:33:19;;;;;;;19.30;13.80;;;;;;;-0.28;100.00;100437.56;15278012;19;19999;-87
2023/01/24 22:38:43;;;;;;;22.13;14.55;;;;;;;-0.27;100.00;100439.31;15276370;19;20082;-85
2023/01/24 22:44:11;;;;;;;20.58;13.77;;;;;;;-0.29;100.00;100425.28;15278777;19;20014;-87
2023/01/24 22:49:36;;;;;;;25.08;15.63;;;;;;;-0.28;100.00;100422.56;15282840;19;20034;-85
2023/01/24 22:55:01;;;;;;;26.05;15.50;;;;;;;-0.32;100.00;100432.38;15279352;19;20426;-87
2023/01/24 23:00:28;;;;;;;28.20;17.08;;;;;;;-0.33;100.00;100427.09;15292096;19;20478;-86
2023/01/24 23:05:59;;;;;;;29.30;17.83;;;;;;;-0.35;100.00;100437.75;15287703;19;20010;-85
2023/01/24 23:11:24;;;;;;;24.98;15.68;;;;;;;-0.38;100.00;100427.25;15301346;19;20035;-87
2023/01/24 23:17:02;;;;;;;27.58;17.00;;;;;;;-0.36;100.00;100436.03;15290817;19;20474;-87
2023/01/24 23:22:28;;;;;;;26.17;16.50;;;;;;;-0.33;100.00;100424.47;15296540;19;20018;-85
2023/01/24 23:27:54;;;;;;;27.52;16.90;;;;;;;-0.35;100.00;100419.22;15291041;19;20027;-87
2023/01/24 23:33:33;;;;;;;24.92;15.80;;;;;;;-0.36;100.00;100413.97;15290491;19;20014;-87
2023/01/24 23:38:58;;;;;;;31.00;16.65;;;;;;;-0.42;100.00;100409.72;15304020;19;20011;-87
2023/01/24 23:44:22;;;;;;;31.90;16.23;;;;;;;-0.45;100.00;100408.91;15305161;19;20792;-88
2023/01/24 23:49:50;;;;;;;39.35;16.23;;;;;;;-0.52;100.00;100413.50;15293397;19;20035;-85
2023/01/24 23:55:14;;;;;;;33.78;15.32;;;;;;;-0.54;100.00;100399.47;15283567;19;20022;-86
